Time;durP1;ratioP1;P1;durP2;ratioP2;P2;SDS_P1;SDS_P2;PMS_P1;PMS_P2;Temp;Humidity;BMP_temperature;BMP_pressure;BME280_temperature;BME280_humidity;BME280_pressure;Samples;Min_cycle;Max_cycle;Signal;HPM_P1;HPM_P2
2020/12/31 00:03:30;;;;;;;9.15;3.15;;;;;;;;;;10459377;27;20085;-62
2020/12/31 00:08:27;;;;;;;10.38;3.20;;;;;;;;;;10459965;27;20039;-65
2020/12/31 00:13:25;;;;;;;14.27;3.72;;;;;;;;;;10458986;27;20051;-62
2020/12/31 00:18:22;;;;;;;10.95;2.85;;;;;;;;;;10460184;27;20089;-62
2020/12/31 00:23:20;;;;;;;8.13;3.40;;;;;;;;;;10456082;27;20082;-64
2020/12/31 00:28:18;;;;;;;7.65;4.05;;;;;;;;;;10460796;27;20067;-63
2020/12/31 00:33:16;;;;;;;14.43;4.78;;;;;;;;;;10458895;27;20043;-63
2020/12/31 00:38:14;;;;;;;12.63;3.65;;;;;;;;;;10459962;27;20051;-63
2020/12/31 00:43:12;;;;;;;17.70;5.15;;;;;;;;;;10458956;27;20454;-62
2020/12/31 00:48:09;;;;;;;10.80;3.95;;;;;;;;;;10466119;27;20492;-63
2020/12/31 00:53:07;;;;;;;14.07;4.80;;;;;;;;;;10448880;27;20049;-64
2020/12/31 00:58:06;;;;;;;12.43;3.80;;;;;;;;;;10447026;27;20055;-62
2020/12/31 01:03:08;;;;;;;8.27;2.90;;;;;;;;;;10448110;27;20086;-64
2020/12/31 01:08:05;;;;;;;14.90;3.63;;;;;;;;;;10465307;27;20051;-64
2020/12/31 01:13:03;;;;;;;14.88;4.25;;;;;;;;;;10466395;27;20074;-62
2020/12/31 01:18:00;;;;;;;13.88;4.13;;;;;;;;;;10464587;27;20053;-62
2020/12/31 01:22:58;;;;;;;18.35;4.03;;;;;;;;;;10466753;27;20038;-64
2020/12/31 01:27:55;;;;;;;10.10;2.90;;;;;;;;;;10465399;27;20039;-63
2020/12/31 01:32:53;;;;;;;11.27;3.75;;;;;;;;;;10465379;27;20054;-63
2020/12/31 01:37:50;;;;;;;11.05;3.00;;;;;;;;;;10465725;27;20071;-62
2020/12/31 01:42:48;;;;;;;12.20;4.22;;;;;;;;;;10462674;27;20048;-63
2020/12/31 01:47:46;;;;;;;14.18;3.78;;;;;;;;;;10464231;27;20042;-64
2020/12/31 01:52:45;;;;;;;10.57;3.65;;;;;;;;;;10463160;27;20071;-63
2020/12/31 01:57:43;;;;;;;15.50;4.22;;;;;;;;;;10459795;27;20042;-63
2020/12/31 02:02:41;;;;;;;13.38;3.20;;;;;;;;;;10460798;27;20462;-63
2020/12/31 02:07:39;;;;;;;15.93;3.42;;;;;;;;;;10465164;27;20076;-63
2020/12/31 02:12:36;;;;;;;16.83;5.53;;;;;;;;;;10461876;27;20054;-63
2020/12/31 02:17:34;;;;;;;13.77;4.03;;;;;;;;;;10463668;27;20043;-63
2020/12/31 02:22:32;;;;;;;9.18;3.13;;;;;;;;;;10461756;27;20089;-63
2020/12/31 02:27:30;;;;;;;14.75;5.07;;;;;;;;;;10463103;27;20171;-64
2020/12/31 02:32:27;;;;;;;17.77;3.63;;;;;;;;;;10464005;27;20069;-63
2020/12/31 02:37:24;;;;;;;11.05;4.45;;;;;;;;;;10461805;27;20484;-63
2020/12/31 02:42:22;;;;;;;10.95;4.13;;;;;;;;;;10463140;27;20046;-63
2020/12/31 02:47:20;;;;;;;12.77;5.07;;;;;;;;;;10459990;27;20078;-63
2020/12/31 02:52:17;;;;;;;13.73;5.38;;;;;;;;;;10461680;27;20047;-63
2020/12/31 02:57:14;;;;;;;9.35;4.53;;;;;;;;;;10462077;27;20399;-64
2020/12/31 03:02:12;;;;;;;11.05;4.55;;;;;;;;;;10461313;27;20102;-64
2020/12/31 03:07:09;;;;;;;12.98;4.90;;;;;;;;;;10443231;27;20495;-63
2020/12/31 03:12:07;;;;;;;16.08;4.75;;;;;;;;;;10460084;27;20118;-63
2020/12/31 03:17:04;;;;;;;8.25;3.38;;;;;;;;;;10462005;27;20404;-63
2020/12/31 03:22:02;;;;;;;18.02;4.88;;;;;;;;;;10456861;27;20065;-63
2020/12/31 03:26:59;;;;;;;13.95;5.28;;;;;;;;;;10461390;27;20073;-64
2020/12/31 03:31:57;;;;;;;17.13;4.03;;;;;;;;;;10459882;27;20427;-63
2020/12/31 03:36:54;;;;;;;17.83;4.40;;;;;;;;;;10460371;27;20063;-63
2020/12/31 03:41:52;;;;;;;12.40;4.57;;;;;;;;;;10441203;27;20069;-63
2020/12/31 03:46:49;;;;;;;16.38;6.80;;;;;;;;;;10460165;27;20771;-63
2020/12/31 03:51:47;;;;;;;12.63;4.78;;;;;;;;;;10460484;27;20078;-63
2020/12/31 03:56:44;;;;;;;15.15;4.68;;;;;;;;;;10459366;27;20038;-62
2020/12/31 04:01:42;;;;;;;17.40;5.13;;;;;;;;;;10460145;27;20051;-63
2020/12/31 04:06:40;;;;;;;17.23;4.75;;;;;;;;;;10458999;27;20073;-62
2020/12/31 04:11:37;;;;;;;13.55;4.30;;;;;;;;;;10460963;27;20047;-63
2020/12/31 04:16:35;;;;;;;18.90;4.57;;;;;;;;;;10458998;27;20078;-62
2020/12/31 04:21:34;;;;;;;7.95;3.72;;;;;;;;;;10465498;27;20058;-64
2020/12/31 04:26:31;;;;;;;19.35;5.30;;;;;;;;;;10468266;27;20062;-62
2020/12/31 04:31:28;;;;;;;12.00;5.85;;;;;;;;;;10466241;27;20051;-63
2020/12/31 04:36:25;;;;;;;20.08;5.63;;;;;;;;;;10468089;27;20046;-62
2020/12/31 04:41:24;;;;;;;15.73;4.93;;;;;;;;;;10465276;27;20066;-63
2020/12/31 04:46:22;;;;;;;19.58;7.10;;;;;;;;;;10459322;27;20085;-62
2020/12/31 04:51:19;;;;;;;12.40;5.10;;;;;;;;;;10463939;27;20071;-63
2020/12/31 04:56:18;;;;;;;12.65;5.05;;;;;;;;;;10461702;27;20058;-63
2020/12/31 05:01:16;;;;;;;13.55;6.32;;;;;;;;;;10466376;27;20069;-63
2020/12/31 05:06:16;;;;;;;22.50;9.30;;;;;;;;;;10466419;27;20086;-63
2020/12/31 05:11:15;;;;;;;30.73;19.08;;;;;;;;;;10466595;27;20047;-63
2020/12/31 05:16:12;;;;;;;20.02;10.90;;;;;;;;;;10465057;27;20043;-63
2020/12/31 05:21:16;;;;;;;17.58;7.88;;;;;;;;;;10465618;27;20074;-64
2020/12/31 05:26:27;;;;;;;14.77;5.70;;;;;;;;;;10464744;27;20089;-62
2020/12/31 05:31:25;;;;;;;15.18;5.43;;;;;;;;;;10461271;27;20488;-62
2020/12/31 05:36:26;;;;;;;13.20;6.40;;;;;;;;;;10460776;27;20051;-62
2020/12/31 05:41:24;;;;;;;19.92;6.25;;;;;;;;;;10471211;27;20047;-63
2020/12/31 05:46:21;;;;;;;13.60;5.97;;;;;;;;;;10483124;27;20070;-63
2020/12/31 05:51:22;;;;;;;14.50;5.80;;;;;;;;;;10485747;27;20070;-63
2020/12/31 05:56:21;;;;;;;27.25;13.57;;;;;;;;;;10485679;27;20038;-63
2020/12/31 06:01:18;;;;;;;13.82;8.35;;;;;;;;;;10484553;27;20054;-63
2020/12/31 06:06:17;;;;;;;14.30;6.85;;;;;;;;;;10484626;27;20144;-64
2020/12/31 06:11:17;;;;;;;25.25;7.78;;;;;;;;;;10484514;27;20081;-63
2020/12/31 06:16:16;;;;;;;17.83;7.47;;;;;;;;;;10484064;27;20039;-63
2020/12/31 06:21:14;;;;;;;19.33;6.72;;;;;;;;;;10483710;27;20074;-63
2020/12/31 06:26:13;;;;;;;11.18;5.90;;;;;;;;;;10483158;27;20074;-63
2020/12/31 06:31:11;;;;;;;20.83;6.20;;;;;;;;;;10483873;27;20062;-63
2020/12/31 06:36:09;;;;;;;18.60;7.00;;;;;;;;;;10483700;27;20062;-62
2020/12/31 06:41:26;;;;;;;9.73;4.30;;;;;;;;;;10482556;27;20058;-62
2020/12/31 06:46:24;;;;;;;17.80;7.30;;;;;;;;;;10480252;27;20086;-63
2020/12/31 06:51:25;;;;;;;22.92;7.10;;;;;;;;;;10480035;27;20460;-62
2020/12/31 06:56:42;;;;;;;19.40;7.15;;;;;;;;;;10480523;27;20042;-61
2020/12/31 07:01:40;;;;;;;11.82;5.18;;;;;;;;;;10482562;27;20407;-63
2020/12/31 07:06:40;;;;;;;18.33;7.10;;;;;;;;;;10481106;27;20074;-62
2020/12/31 07:11:38;;;;;;;12.00;4.75;;;;;;;;;;10482676;27;20392;-62
2020/12/31 07:16:39;;;;;;;9.50;5.10;;;;;;;;;;10481967;27;20399;-63
2020/12/31 07:21:37;;;;;;;14.75;6.63;;;;;;;;;;10481694;27;20073;-63
2020/12/31 07:26:36;;;;;;;12.50;7.00;;;;;;;;;;10480959;27;20074;-63
2020/12/31 07:31:39;;;;;;;13.68;5.00;;;;;;;;;;10482093;27;20073;-61
2020/12/31 07:36:37;;;;;;;10.40;5.25;;;;;;;;;;10481338;27;20046;-62
2020/12/31 07:41:34;;;;;;;12.85;5.15;;;;;;;;;;10475632;27;20420;-61
2020/12/31 07:46:35;;;;;;;9.90;5.53;;;;;;;;;;10460294;27;20476;-62
2020/12/31 07:51:33;;;;;;;10.25;4.57;;;;;;;;;;10440707;27;20451;-61
2020/12/31 07:56:31;;;;;;;16.35;6.25;;;;;;;;;;10466953;27;20035;-61
2020/12/31 08:01:29;;;;;;;13.02;5.43;;;;;;;;;;10472651;27;20534;-62
2020/12/31 08:06:28;;;;;;;17.48;6.13;;;;;;;;;;10469544;27;20070;-62
2020/12/31 08:11:25;;;;;;;9.45;4.43;;;;;;;;;;10467515;27;20039;-62
2020/12/31 08:16:22;;;;;;;22.48;5.05;;;;;;;;;;10464688;27;20397;-63
2020/12/31 08:21:21;;;;;;;26.42;6.57;;;;;;;;;;10469086;27;20055;-62
2020/12/31 08:26:20;;;;;;;9.85;5.32;;;;;;;;;;10467454;27;20476;-63
2020/12/31 08:31:17;;;;;;;8.15;4.32;;;;;;;;;;10467555;27;20039;-63
2020/12/31 08:36:23;;;;;;;8.18;4.43;;;;;;;;;;10463294;27;20116;-63
2020/12/31 08:41:22;;;;;;;13.27;5.07;;;;;;;;;;10471424;27;20085;-64
2020/12/31 08:46:20;;;;;;;21.08;5.80;;;;;;;;;;10484130;27;20527;-61
2020/12/31 08:51:18;;;;;;;10.75;5.10;;;;;;;;;;10487538;27;20076;-62
2020/12/31 08:56:25;;;;;;;14.45;7.47;;;;;;;;;;10482487;27;20073;-62
2020/12/31 09:01:23;;;;;;;15.27;7.55;;;;;;;;;;10479542;27;20074;-63
2020/12/31 09:06:24;;;;;;;21.05;7.38;;;;;;;;;;10479949;27;20073;-62
2020/12/31 09:11:26;;;;;;;14.52;7.72;;;;;;;;;;10483013;27;20170;-62
2020/12/31 09:16:28;;;;;;;10.60;5.93;;;;;;;;;;10484613;27;20716;-63
2020/12/31 09:21:26;;;;;;;16.23;7.82;;;;;;;;;;10483934;27;20089;-61
2020/12/31 09:26:26;;;;;;;12.38;7.18;;;;;;;;;;10485314;27;20085;-61
2020/12/31 09:31:23;;;;;;;19.13;7.80;;;;;;;;;;10483750;27;20069;-63
2020/12/31 09:36:23;;;;;;;14.57;10.18;;;;;;;;;;10485916;27;20419;-64
2020/12/31 09:41:21;;;;;;;9.45;7.18;;;;;;;;;;10477079;27;20074;-63
2020/12/31 09:46:19;;;;;;;11.48;6.20;;;;;;;;;;10465376;27;20075;-63
2020/12/31 09:51:17;;;;;;;12.23;6.80;;;;;;;;;;10463436;27;20499;-63
2020/12/31 09:56:16;;;;;;;15.23;9.30;;;;;;;;;;10464555;27;20035;-63
2020/12/31 10:01:14;;;;;;;28.98;15.20;;;;;;;;;;10463615;27;20063;-64
2020/12/31 10:06:13;;;;;;;24.25;13.18;;;;;;;;;;10463302;27;20078;-63
2020/12/31 10:11:13;;;;;;;34.95;16.25;;;;;;;;;;10463374;27;20064;-63
2020/12/31 10:16:10;;;;;;;44.15;20.73;;;;;;;;;;10462079;27;20101;-62
2020/12/31 10:21:09;;;;;;;20.33;11.43;;;;;;;;;;10444168;27;20038;-62
2020/12/31 10:26:09;;;;;;;37.03;16.85;;;;;;;;;;10460814;27;20082;-63
2020/12/31 10:31:07;;;;;;;24.98;14.10;;;;;;;;;;10460735;27;20062;-64
2020/12/31 10:36:05;;;;;;;28.52;14.55;;;;;;;;;;10461218;27;20105;-64
2020/12/31 10:41:02;;;;;;;31.10;18.27;;;;;;;;;;10461957;27;20051;-63
2020/12/31 10:46:00;;;;;;;20.38;9.80;;;;;;;;;;10461242;27;20491;-64
2020/12/31 10:50:58;;;;;;;16.42;8.77;;;;;;;;;;10442986;27;20043;-63
2020/12/31 10:56:01;;;;;;;40.15;18.38;;;;;;;;;;10460644;27;20148;-64
2020/12/31 11:01:03;;;;;;;28.13;15.63;;;;;;;;;;10457840;27;20047;-63
2020/12/31 11:06:00;;;;;;;26.65;13.10;;;;;;;;;;10461900;27;20055;-62
2020/12/31 11:10:57;;;;;;;25.70;14.55;;;;;;;;;;10460449;27;20078;-62
2020/12/31 11:15:55;;;;;;;19.25;9.23;;;;;;;;;;10460475;27;20074;-63
2020/12/31 11:20:54;;;;;;;60.13;37.20;;;;;;;;;;10441639;27;20395;-63
2020/12/31 11:25:51;;;;;;;24.02;14.77;;;;;;;;;;10457560;27;20186;-63
2020/12/31 11:30:49;;;;;;;49.42;26.52;;;;;;;;;;10460800;27;20046;-64
2020/12/31 11:35:46;;;;;;;21.23;12.70;;;;;;;;;;10458815;27;20168;-63
2020/12/31 11:40:44;;;;;;;27.17;13.07;;;;;;;;;;10463306;27;20446;-62
2020/12/31 11:45:41;;;;;;;23.02;10.75;;;;;;;;;;10478241;27;20047;-63
2020/12/31 11:50:39;;;;;;;19.25;11.40;;;;;;;;;;10480909;27;20050;-62
2020/12/31 11:55:36;;;;;;;18.85;8.90;;;;;;;;;;10480254;27;20116;-61
2020/12/31 12:00:34;;;;;;;26.17;12.32;;;;;;;;;;10480653;27;20077;-63
2020/12/31 12:05:32;;;;;;;15.93;9.18;;;;;;;;;;10480991;27;20053;-63
2020/12/31 12:10:30;;;;;;;14.75;8.43;;;;;;;;;;10480782;27;20042;-62
2020/12/31 12:15:28;;;;;;;19.85;10.45;;;;;;;;;;10480540;27;20070;-63
2020/12/31 12:20:26;;;;;;;19.15;8.63;;;;;;;;;;10479428;27;20058;-62
2020/12/31 12:25:23;;;;;;;18.25;10.65;;;;;;;;;;10479556;27;20500;-62
2020/12/31 12:30:21;;;;;;;30.00;15.50;;;;;;;;;;10477203;27;20058;-62
2020/12/31 12:35:19;;;;;;;16.20;7.43;;;;;;;;;;10479766;27;20077;-63
2020/12/31 12:40:17;;;;;;;15.98;10.40;;;;;;;;;;10482265;27;20042;-63
2020/12/31 12:45:14;;;;;;;48.42;30.77;;;;;;;;;;10487842;27;20054;-61
2020/12/31 12:50:12;;;;;;;16.83;10.13;;;;;;;;;;10486453;27;20050;-62
2020/12/31 12:55:09;;;;;;;43.72;27.77;;;;;;;;;;10486338;27;20097;-64
2020/12/31 13:00:08;;;;;;;64.60;44.45;;;;;;;;;;10486964;27;20042;-63
2020/12/31 13:05:06;;;;;;;46.13;36.95;;;;;;;;;;10486789;27;20030;-63
2020/12/31 13:10:04;;;;;;;81.00;50.95;;;;;;;;;;10486737;27;20470;-62
2020/12/31 13:15:01;;;;;;;74.53;57.25;;;;;;;;;;10483778;27;20034;-63
2020/12/31 13:19:59;;;;;;;49.97;36.28;;;;;;;;;;10486273;27;20526;-63
2020/12/31 13:24:57;;;;;;;46.78;30.02;;;;;;;;;;10485888;27;20045;-62
2020/12/31 13:29:54;;;;;;;45.90;30.88;;;;;;;;;;10485629;27;20066;-62
2020/12/31 13:34:51;;;;;;;63.92;36.53;;;;;;;;;;10485176;27;20062;-63
2020/12/31 13:39:50;;;;;;;51.33;30.33;;;;;;;;;;10484776;27;20455;-62
2020/12/31 13:44:47;;;;;;;24.63;15.43;;;;;;;;;;10484659;27;20492;-64
2020/12/31 13:49:44;;;;;;;19.58;11.43;;;;;;;;;;10484426;27;20063;-63
2020/12/31 13:54:42;;;;;;;73.57;48.10;;;;;;;;;;10482622;27;20407;-62
2020/12/31 13:59:40;;;;;;;61.35;36.92;;;;;;;;;;10485530;27;20066;-61
2020/12/31 14:04:37;;;;;;;71.13;42.83;;;;;;;;;;10485580;27;20058;-62
2020/12/31 14:09:35;;;;;;;57.08;37.63;;;;;;;;;;10484113;27;20039;-63
2020/12/31 14:14:32;;;;;;;57.03;38.22;;;;;;;;;;10485113;27;20065;-64
2020/12/31 14:19:31;;;;;;;20.65;13.68;;;;;;;;;;10484519;27;20107;-63
2020/12/31 14:24:29;;;;;;;28.27;18.33;;;;;;;;;;10484932;27;20035;-63
2020/12/31 14:29:26;;;;;;;29.95;20.35;;;;;;;;;;10483481;27;20046;-62
2020/12/31 14:34:24;;;;;;;31.50;24.58;;;;;;;;;;10482127;27;20082;-63
2020/12/31 14:39:22;;;;;;;73.93;52.40;;;;;;;;;;10480360;27;20074;-63
2020/12/31 14:44:20;;;;;;;54.83;38.03;;;;;;;;;;10465863;27;20137;-64
2020/12/31 14:49:17;;;;;;;37.53;22.58;;;;;;;;;;10461791;27;20073;-65
2020/12/31 14:54:15;;;;;;;76.10;45.45;;;;;;;;;;10462374;27;20058;-64
2020/12/31 14:59:13;;;;;;;162.07;117.80;;;;;;;;;;10461222;27;20089;-64
2020/12/31 15:04:11;;;;;;;70.85;47.50;;;;;;;;;;10461933;27;20035;-63
2020/12/31 15:09:08;;;;;;;100.55;62.08;;;;;;;;;;10462678;27;20066;-62
2020/12/31 15:14:25;;;;;;;64.93;43.90;;;;;;;;;;10458623;27;20038;-62
2020/12/31 15:19:23;;;;;;;55.45;36.80;;;;;;;;;;10457719;27;20078;-64
2020/12/31 15:24:20;;;;;;;37.63;25.60;;;;;;;;;;10462181;27;20342;-63
2020/12/31 15:29:17;;;;;;;22.08;15.98;;;;;;;;;;10460120;27;20053;-64
2020/12/31 15:34:16;;;;;;;46.60;33.13;;;;;;;;;;10461959;27;20046;-62
2020/12/31 15:39:13;;;;;;;33.70;23.88;;;;;;;;;;10456609;27;20078;-62
2020/12/31 15:44:11;;;;;;;77.85;44.67;;;;;;;;;;10433154;27;20108;-62
2020/12/31 15:49:08;;;;;;;33.03;23.67;;;;;;;;;;10424741;27;20067;-63
2020/12/31 15:54:10;;;;;;;58.63;36.33;;;;;;;;;;10441611;27;20075;-62
2020/12/31 15:59:08;;;;;;;31.00;21.13;;;;;;;;;;10460241;27;20066;-63
2020/12/31 16:04:07;;;;;;;51.15;28.98;;;;;;;;;;10459988;27;20083;-63
2020/12/31 16:09:05;;;;;;;69.10;46.03;;;;;;;;;;10457029;27;20063;-63
2020/12/31 16:14:03;;;;;;;104.93;64.03;;;;;;;;;;10456760;27;20035;-63
2020/12/31 16:19:01;;;;;;;106.53;63.35;;;;;;;;;;10465521;27;20069;-62
2020/12/31 16:24:00;;;;;;;476.95;265.55;;;;;;;;;;10469676;27;20039;-62
2020/12/31 16:28:57;;;;;;;58.63;33.17;;;;;;;;;;10466289;27;20038;-61
2020/12/31 16:33:55;;;;;;;40.92;23.17;;;;;;;;;;10468582;27;20039;-63
2020/12/31 16:38:53;;;;;;;47.58;25.25;;;;;;;;;;10468240;27;20058;-63
2020/12/31 16:43:50;;;;;;;111.53;62.90;;;;;;;;;;10483840;27;20089;-63
2020/12/31 16:48:47;;;;;;;39.13;22.80;;;;;;;;;;10486656;27;20081;-62
2020/12/31 16:53:46;;;;;;;12.30;9.00;;;;;;;;;;10487261;27;20158;-63
2020/12/31 16:58:51;;;;;;;47.42;29.92;;;;;;;;;;10488441;27;20069;-62
2020/12/31 17:03:48;;;;;;;18.00;10.63;;;;;;;;;;10486252;27;20034;-62
2020/12/31 17:08:47;;;;;;;16.38;11.27;;;;;;;;;;10486857;27;20043;-63
2020/12/31 17:13:45;;;;;;;14.57;8.98;;;;;;;;;;10488116;27;20487;-63
2020/12/31 17:18:51;;;;;;;9.75;6.63;;;;;;;;;;10483246;27;20095;-63
2020/12/31 17:23:49;;;;;;;8.88;4.65;;;;;;;;;;10483275;27;20063;-63
2020/12/31 17:28:47;;;;;;;12.18;8.02;;;;;;;;;;10482065;27;20054;-62
2020/12/31 17:33:44;;;;;;;3.50;3.20;;;;;;;;;;10464213;27;20572;-62
2020/12/31 17:38:41;;;;;;;6.78;3.22;;;;;;;;;;10482739;27;20062;-64
2020/12/31 17:43:41;;;;;;;5.20;4.20;;;;;;;;;;10471499;27;20047;-62
2020/12/31 17:48:38;;;;;;;7.50;3.17;;;;;;;;;;10464849;27;20030;-63
2020/12/31 17:53:35;;;;;;;9.20;5.65;;;;;;;;;;10465639;27;20046;-63
2020/12/31 17:58:33;;;;;;;5.38;4.00;;;;;;;;;;10438290;27;20097;-64
2020/12/31 18:03:31;;;;;;;7.05;4.18;;;;;;;;;;10434660;27;20506;-61
2020/12/31 18:08:29;;;;;;;6.38;4.55;;;;;;;;;;10442714;27;20066;-63
2020/12/31 18:13:26;;;;;;;7.28;3.65;;;;;;;;;;10452429;27;20058;-63
2020/12/31 18:18:24;;;;;;;9.52;4.30;;;;;;;;;;10444419;27;20515;-65
2020/12/31 18:23:22;;;;;;;7.40;4.05;;;;;;;;;;10448685;27;20069;-67
2020/12/31 18:28:27;;;;;;;6.55;3.92;;;;;;;;;;10438961;27;20066;-67
2020/12/31 18:33:25;;;;;;;7.65;5.22;;;;;;;;;;10439517;27;20077;-67
2020/12/31 18:38:23;;;;;;;6.20;4.47;;;;;;;;;;10414792;27;20150;-66
2020/12/31 18:43:21;;;;;;;19.55;10.50;;;;;;;;;;10418478;27;20283;-66
2020/12/31 18:48:18;;;;;;;91.82;81.90;;;;;;;;;;10419742;27;20490;-67
2020/12/31 18:53:20;;;;;;;46.65;35.83;;;;;;;;;;10431538;27;20071;-66
2020/12/31 18:58:19;;;;;;;37.30;32.60;;;;;;;;;;10439216;27;20071;-65
2020/12/31 19:03:16;;;;;;;37.05;25.30;;;;;;;;;;10449536;27;20504;-64
2020/12/31 19:08:14;;;;;;;28.20;19.85;;;;;;;;;;10437646;27;20454;-65
2020/12/31 19:13:12;;;;;;;75.00;45.85;;;;;;;;;;10431840;27;20085;-65
2020/12/31 19:18:10;;;;;;;67.07;44.38;;;;;;;;;;10432089;27;20079;-65
2020/12/31 19:23:09;;;;;;;41.53;30.48;;;;;;;;;;10436306;27;20059;-64
2020/12/31 19:28:06;;;;;;;16.92;12.50;;;;;;;;;;10439519;27;20078;-65
2020/12/31 19:33:07;;;;;;;8.63;5.75;;;;;;;;;;10448220;27;20126;-65
2020/12/31 19:38:06;;;;;;;17.38;9.18;;;;;;;;;;10446893;27;20105;-65
2020/12/31 19:43:03;;;;;;;18.77;13.43;;;;;;;;;;10468952;27;20585;-64
2020/12/31 19:48:00;;;;;;;8.20;6.32;;;;;;;;;;10474205;27;20095;-65
2020/12/31 19:52:58;;;;;;;11.55;7.57;;;;;;;;;;10475117;27;20075;-64
2020/12/31 19:57:56;;;;;;;8.75;5.38;;;;;;;;;;10457309;27;20078;-65
2020/12/31 20:02:57;;;;;;;44.63;29.67;;;;;;;;;;10479408;27;20070;-64
2020/12/31 20:07:54;;;;;;;10.50;9.40;;;;;;;;;;10476837;27;20089;-65
2020/12/31 20:12:53;;;;;;;71.15;50.30;;;;;;;;;;10477127;27;20062;-65
2020/12/31 20:17:51;;;;;;;26.25;19.90;;;;;;;;;;10475174;27;20066;-64
2020/12/31 20:22:49;;;;;;;26.50;19.27;;;;;;;;;;10475203;27;20066;-65
2020/12/31 20:27:46;;;;;;;121.47;87.85;;;;;;;;;;10478785;27;20050;-65
2020/12/31 20:32:43;;;;;;;38.72;26.00;;;;;;;;;;10480867;27;20059;-65
2020/12/31 20:37:42;;;;;;;22.45;14.88;;;;;;;;;;10476724;27;20067;-64
2020/12/31 20:42:42;;;;;;;30.70;22.00;;;;;;;;;;10470582;27;20078;-65
2020/12/31 20:47:40;;;;;;;34.22;22.50;;;;;;;;;;10454157;27;20432;-63
2020/12/31 20:52:37;;;;;;;7.68;5.82;;;;;;;;;;10431687;27;20081;-64
2020/12/31 20:57:35;;;;;;;9.48;5.95;;;;;;;;;;10432736;27;20071;-66
2020/12/31 21:02:33;;;;;;;4.60;3.10;;;;;;;;;;10429172;27;20519;-68
2020/12/31 21:07:30;;;;;;;4.05;3.03;;;;;;;;;;10433308;27;20421;-61
2020/12/31 21:12:27;;;;;;;6.30;4.57;;;;;;;;;;10427366;27;20608;-61
2020/12/31 21:17:28;;;;;;;8.50;5.72;;;;;;;;;;10425033;27;20484;-59
2020/12/31 21:22:25;;;;;;;9.40;6.22;;;;;;;;;;10428348;27;20069;-60
2020/12/31 21:27:25;;;;;;;10.90;5.90;;;;;;;;;;10419059;27;20486;-60
2020/12/31 21:32:22;;;;;;;13.48;9.98;;;;;;;;;;10424900;27;20070;-60
2020/12/31 21:37:20;;;;;;;12.18;8.77;;;;;;;;;;10431864;27;20081;-61
2020/12/31 21:42:18;;;;;;;31.73;24.45;;;;;;;;;;10446423;27;21032;-62
2020/12/31 21:47:15;;;;;;;19.05;13.63;;;;;;;;;;10472158;27;20483;-60
2020/12/31 21:52:12;;;;;;;17.90;12.18;;;;;;;;;;10471358;27;20454;-62
2020/12/31 21:57:10;;;;;;;14.52;9.77;;;;;;;;;;10471453;27;20081;-61
2020/12/31 22:02:09;;;;;;;364.38;309.02;;;;;;;;;;10465614;27;20071;-62
2020/12/31 22:07:07;;;;;;;400.27;324.48;;;;;;;;;;10467811;27;20086;-61
2020/12/31 22:12:04;;;;;;;47.28;35.67;;;;;;;;;;10445670;27;20066;-61
2020/12/31 22:17:03;;;;;;;22.90;15.25;;;;;;;;;;10464386;27;20067;-60
2020/12/31 22:22:04;;;;;;;13.98;8.50;;;;;;;;;;10462528;27;20062;-59
2020/12/31 22:27:01;;;;;;;14.07;10.07;;;;;;;;;;10458590;27;20491;-61
2020/12/31 22:31:59;;;;;;;21.65;16.70;;;;;;;;;;10473787;27;20074;-61
2020/12/31 22:36:58;;;;;;;43.15;31.27;;;;;;;;;;10462975;27;20486;-60
2020/12/31 22:41:55;;;;;;;15.70;12.90;;;;;;;;;;10473384;27;20081;-62
2020/12/31 22:46:54;;;;;;;14.10;11.60;;;;;;;;;;10467133;27;20077;-61
2020/12/31 22:51:51;;;;;;;18.67;13.35;;;;;;;;;;10471694;27;20069;-62
2020/12/31 22:56:49;;;;;;;16.42;12.88;;;;;;;;;;10466466;27;20072;-61
2020/12/31 23:01:51;;;;;;;11.98;8.18;;;;;;;;;;10476706;27;20097;-61
2020/12/31 23:06:48;;;;;;;10.00;7.32;;;;;;;;;;10469578;27;20082;-61
2020/12/31 23:11:46;;;;;;;10.45;6.50;;;;;;;;;;10467790;27;20069;-60
2020/12/31 23:16:45;;;;;;;8.23;6.20;;;;;;;;;;10464823;27;20066;-61
2020/12/31 23:21:42;;;;;;;8.90;6.30;;;;;;;;;;10465633;27;20775;-60
2020/12/31 23:26:41;;;;;;;7.78;5.45;;;;;;;;;;10455623;27;20043;-60
2020/12/31 23:31:39;;;;;;;7.70;6.53;;;;;;;;;;10471582;27;20475;-61
2020/12/31 23:36:41;;;;;;;8.75;6.63;;;;;;;;;;10469572;27;20077;-61
2020/12/31 23:41:38;;;;;;;12.40;7.53;;;;;;;;;;10474894;27;20078;-60
2020/12/31 23:46:40;;;;;;;11.98;6.32;;;;;;;;;;10474391;27;20069;-60
2020/12/31 23:51:39;;;;;;;9.63;6.43;;;;;;;;;;10472307;27;20074;-62
2020/12/31 23:56:37;;;;;;;12.88;6.15;;;;;;;;;;10478661;27;20108;-60
